Raiatea — V7VA3 — position and weather

sailwx.info

Track history (hours):
 
Tides and Currents Weather Stations Pressure Air Temp Water Temp Dewpoint Dewpoint Depression Visibility Wind Speed Wind Dir Waves Ship Positions

Raiatea

Last reported at 2014-Nov-21 08:32 UTC. Time now 2014-Dec-21 03:19 UTC.
Position N 01°10' E 103°41'.
Warning: this ship's position is 29 days out of date.

Length 292 m; draft 17.2 m.

Type: Cargo ship. MMSI: 538004070.

Date/timePositionNaut miles runAvg speedWind from/ knotsBaromVisibWave heightAir tempDewpointWater temp
2014-Nov-21 08:32N 01°10' E 103°41'1010.0
2014-Nov-21 07:33N 01°12' E 103°51'7 6.6
2014-Nov-21 06:33N 01°15' E 103°56'1 0.6
2014-Nov-21 04:22N 01°16' E 103°56'0 0.1
2014-Nov-21 02:25N 01°16' E 103°56'0 0.1
2014-Nov-21 01:31N 01°16' E 103°56'0 0.0
2014-Nov-20 23:19N 01°16' E 103°56'0 0.0
2014-Nov-20 22:31N 01°16' E 103°56'0 0.0
2014-Nov-20 21:13N 01°16' E 103°56'0 0.0
2014-Nov-20 20:25N 01°16' E 103°56'0 0.0
2014-Nov-20 19:07N 01°16' E 103°56'0 0.0
2014-Nov-20 18:25N 01°16' E 103°56'0 0.0
2014-Nov-20 17:31N 01°16' E 103°56'0 0.1
2014-Nov-20 16:19N 01°16' E 103°56'0 0.0
2014-Nov-20 14:04N 01°16' E 103°56'0 0.0
2014-Nov-20 13:25N 01°16' E 103°56'0 0.1
2014-Nov-20 09:13N 01°16' E 103°56'0 0.1
2014-Nov-20 08:19N 01°16' E 103°56'0 0.1
2014-Nov-20 07:33N 01°16' E 103°56'2 1.7
2014-Nov-20 06:33N 01°16' E 103°57'7 7.4
2014-Nov-20 05:33N 01°16' E 104°05'9 8.4
2014-Nov-20 04:27N 01°17' E 104°14'  
2014-Nov-17 14:11S 04°24' E 114°10'812.4
2014-Nov-17 13:34S 04°18' E 114°15'1212.4
2014-Nov-17 12:34S 04°06' E 114°20'1312.4
2014-Nov-17 11:30S 03°54' E 114°24'9 9.2
2014-Nov-17 10:33S 03°46' E 114°26'3 3.0
2014-Nov-17 09:33S 03°43' E 114°26'0 0.0
2014-Nov-17 08:33S 03°43' E 114°26'0 0.1
2014-Nov-17 07:33S 03°43' E 114°26'0 0.1
2014-Nov-17 06:33S 03°43' E 114°26'0 0.0
2014-Nov-17 05:33S 03°43' E 114°26'0 0.1
2014-Nov-17 04:33S 03°43' E 114°26'0 0.1
2014-Nov-17 03:33S 03°43' E 114°25'0 0.0
2014-Nov-17 02:33S 03°43' E 114°25'0 0.1
2014-Nov-17 01:33S 03°43' E 114°26'0 0.0
2014-Nov-17 00:33S 03°43' E 114°26'0 0.0
2014-Nov-16 23:33S 03°43' E 114°26'0 0.0
2014-Nov-16 22:30S 03°43' E 114°26'0 0.0
2014-Nov-16 21:33S 03°43' E 114°26'0 0.0
2014-Nov-16 20:33S 03°43' E 114°26'0 0.1
2014-Nov-16 19:33S 03°43' E 114°26'0 0.2
2014-Nov-16 18:33S 03°42' E 114°25'0 0.1
2014-Nov-16 17:33S 03°42' E 114°25'0 0.0
2014-Nov-16 16:33S 03°42' E 114°25'0 0.0
2014-Nov-16 15:30S 03°42' E 114°25'0 0.1
2014-Nov-16 14:33S 03°42' E 114°26'0 0.0
2014-Nov-16 13:33S 03°42' E 114°26'0 0.0
2014-Nov-16 12:33S 03°42' E 114°26'0 0.1
2014-Nov-16 11:30S 03°42' E 114°26'0 0.0
2014-Nov-16 10:33S 03°42' E 114°26'0 0.1
2014-Nov-16 06:33S 03°43' E 114°26'0 0.1
2014-Nov-16 05:33S 03°43' E 114°26'0 0.1
2014-Nov-16 04:33S 03°42' E 114°25'0 0.1
2014-Nov-16 03:33S 03°42' E 114°25'0 0.1
2014-Nov-16 02:27S 03°43' E 114°25'0 0.1
2014-Nov-16 01:33S 03°43' E 114°26'0 0.1
2014-Nov-16 00:33S 03°43' E 114°25'0 0.1
2014-Nov-15 23:33S 03°43' E 114°26'0 0.1
2014-Nov-15 22:33S 03°43' E 114°26'0 0.0
2014-Nov-15 21:33S 03°43' E 114°26'0 0.1
2014-Nov-15 20:33S 03°43' E 114°26'0 0.0
2014-Nov-15 19:33S 03°43' E 114°26'0 0.0
2014-Nov-15 18:33S 03°43' E 114°26'0 0.1
2014-Nov-15 17:33S 03°42' E 114°26'0 0.1
2014-Nov-15 16:33S 03°42' E 114°26'0 0.1
2014-Nov-15 15:30S 03°42' E 114°26'0 0.1
2014-Nov-15 14:33S 03°42' E 114°26'0 0.0
2014-Nov-15 13:30S 03°42' E 114°26'0 0.0
2014-Nov-15 12:33S 03°42' E 114°26'0 0.0
2014-Nov-15 11:33S 03°42' E 114°26'0 0.1
2014-Nov-15 10:33S 03°42' E 114°26'0 0.2
2014-Nov-15 09:33S 03°42' E 114°26'0 0.1
2014-Nov-15 08:33S 03°43' E 114°26'0 0.1
2014-Nov-15 07:33S 03°43' E 114°26'0 0.0
2014-Nov-15 06:33S 03°43' E 114°26'0 0.1
2014-Nov-15 05:33S 03°43' E 114°26'0 0.0
2014-Nov-15 04:33S 03°43' E 114°26'0 0.0
2014-Nov-15 03:33S 03°43' E 114°26'0 0.0
2014-Nov-15 02:33S 03°43' E 114°26'0 0.1
2014-Nov-15 01:33S 03°43' E 114°25'0 0.1
2014-Nov-15 00:33S 03°43' E 114°26'0 0.0
2014-Nov-14 23:33S 03°43' E 114°26'0 0.0
2014-Nov-14 22:33S 03°43' E 114°26'0 0.1
2014-Nov-14 21:33S 03°43' E 114°26'0 0.1
2014-Nov-14 20:33S 03°43' E 114°26'0 0.0
2014-Nov-14 19:33S 03°43' E 114°26'0 0.1
2014-Nov-14 18:33S 03°43' E 114°26'0 0.1
2014-Nov-14 17:33S 03°43' E 114°25'0 0.2
2014-Nov-14 16:33S 03°42' E 114°25'0 0.0
2014-Nov-14 15:33S 03°42' E 114°25'0 0.1
2014-Nov-14 14:33S 03°42' E 114°25'0 0.0
2014-Nov-14 12:33S 03°42' E 114°26'0 0.1
2014-Nov-14 11:33S 03°42' E 114°25'0 0.0
2014-Nov-14 10:33S 03°42' E 114°25'0 0.2
2014-Nov-14 09:30S 03°42' E 114°25'0 0.1
2014-Nov-14 08:33S 03°43' E 114°25'0 0.1
2014-Nov-14 07:30S 03°43' E 114°26'0 0.1
2014-Nov-14 06:33S 03°43' E 114°26'0 0.0
2014-Nov-14 05:33S 03°43' E 114°26'0 0.1
2014-Nov-14 04:33S 03°43' E 114°26'0 0.1
2014-Nov-14 03:33S 03°43' E 114°25'0 0.0
2014-Nov-14 02:24S 03°42' E 114°25'0 0.0
2014-Nov-14 01:33S 03°43' E 114°25'0 0.0
2014-Nov-14 00:30S 03°43' E 114°25'0 0.1
2014-Nov-13 23:33S 03°43' E 114°26'0 0.1
2014-Nov-13 22:30S 03°43' E 114°26'0 0.0
2014-Nov-13 21:33S 03°43' E 114°26'0 0.0
2014-Nov-13 20:33S 03°43' E 114°26'0 0.0
2014-Nov-13 19:33S 03°43' E 114°26'0 0.1
2014-Nov-13 18:33S 03°43' E 114°26'0 0.1
2014-Nov-13 17:30S 03°42' E 114°25'0 0.2
2014-Nov-13 16:33S 03°42' E 114°25'0 0.0
2014-Nov-13 15:30S 03°42' E 114°25'0 0.0
2014-Nov-13 14:33S 03°42' E 114°25'0 0.0
2014-Nov-13 13:33S 03°42' E 114°25'0 0.1
2014-Nov-13 12:33S 03°42' E 114°26'0 0.0
2014-Nov-13 11:33S 03°42' E 114°26'0 0.0
2014-Nov-13 10:30S 03°42' E 114°26'0 0.0
2014-Nov-13 09:33S 03°42' E 114°26'0 0.1
2014-Nov-13 08:33S 03°42' E 114°26'0 0.2
2014-Nov-13 07:30S 03°42' E 114°26'0 0.2
2014-Nov-13 06:33S 03°42' E 114°26'0 0.1
2014-Nov-13 05:33S 03°42' E 114°25'0 0.0
2014-Nov-13 04:33S 03°43' E 114°25'0 0.1
2014-Nov-13 03:33S 03°42' E 114°25'0 0.0
2014-Nov-13 02:33S 03°42' E 114°25'0 0.0
2014-Nov-13 01:33S 03°42' E 114°25'0 0.0
2014-Nov-13 00:30S 03°42' E 114°25'0 0.0
2014-Nov-12 23:33S 03°42' E 114°25'0 0.0
2014-Nov-12 22:33S 03°42' E 114°25'0 0.0
2014-Nov-12 21:33S 03°42' E 114°25'0 0.0
2014-Nov-12 20:33S 03°42' E 114°25'0 0.0
2014-Nov-12 19:33S 03°42' E 114°25'0 0.0
2014-Nov-12 18:33S 03°42' E 114°25'0 0.0
2014-Nov-12 17:33S 03°42' E 114°25'0 0.0
2014-Nov-12 16:33S 03°42' E 114°25'0 0.1
2014-Nov-12 15:33S 03°42' E 114°25'0 0.0
2014-Nov-12 14:33S 03°42' E 114°25'0 0.1
2014-Nov-12 13:33S 03°42' E 114°26'0 0.0
2014-Nov-12 12:33S 03°42' E 114°26'0 0.0
2014-Nov-12 11:33S 03°42' E 114°26'0 0.0
2014-Nov-12 10:33S 03°42' E 114°26'0 0.1
2014-Nov-12 09:33S 03°42' E 114°26'0 0.0
2014-Nov-12 08:33S 03°42' E 114°26'0 0.1
2014-Nov-12 07:27S 03°42' E 114°26'0 0.2
2014-Nov-12 06:33S 03°43' E 114°26'0 0.1
2014-Nov-12 05:33S 03°43' E 114°26'0 0.0
2014-Nov-12 04:33S 03°43' E 114°26'0 0.0
2014-Nov-12 03:33S 03°43' E 114°26'0 0.1
2014-Nov-12 02:33S 03°43' E 114°26'0 0.1
2014-Nov-12 01:33S 03°43' E 114°25'0 0.0
2014-Nov-12 00:33S 03°43' E 114°25'0 0.1
2014-Nov-11 23:33S 03°43' E 114°25'0 0.0
2014-Nov-11 22:33S 03°43' E 114°25'0 0.1
2014-Nov-11 21:33S 03°43' E 114°26'0 0.1
2014-Nov-11 20:33S 03°43' E 114°25'0 0.1
2014-Nov-11 19:33S 03°42' E 114°25'0 0.0
2014-Nov-11 18:33S 03°42' E 114°25'0 0.1
2014-Nov-11 17:33S 03°42' E 114°25'0 0.1
2014-Nov-11 16:33S 03°42' E 114°26'0 0.1
2014-Nov-11 15:33S 03°42' E 114°25'0 0.1
2014-Nov-11 14:33S 03°42' E 114°26'0 0.0
2014-Nov-11 13:33S 03°42' E 114°26'0 0.0
2014-Nov-11 12:33S 03°42' E 114°26'0 0.0
2014-Nov-11 11:33S 03°42' E 114°26'0 0.1
2014-Nov-11 10:33S 03°42' E 114°26'0 0.0
2014-Nov-11 09:33S 03°42' E 114°26'0 0.0
2014-Nov-11 08:33S 03°42' E 114°26'  
Track history (hours):
 
Tides and Currents Weather Stations Pressure Air Temp Water Temp Dewpoint Dewpoint Depression Visibility Wind Speed Wind Dir Waves Ship Positions

Raiatea

Last reported at 2014-Nov-21 08:32 UTC. Time now 2014-Dec-21 03:19 UTC.
Position N 01°10' E 103°41'.
Warning: this ship's position is 29 days out of date.

Length 292 m; draft 17.2 m.

Type: Cargo ship. MMSI: 538004070.

Date/timePositionNaut miles runAvg speedWind from/ knotsBaromVisibWave heightAir tempDewpointWater temp
2014-Nov-21 08:32N 01°10' E 103°41'1010.0
2014-Nov-21 07:33N 01°12' E 103°51'7 6.6
2014-Nov-21 06:33N 01°15' E 103°56'1 0.6
2014-Nov-21 04:22N 01°16' E 103°56'0 0.1
2014-Nov-21 02:25N 01°16' E 103°56'0 0.1
2014-Nov-21 01:31N 01°16' E 103°56'0 0.0
2014-Nov-20 23:19N 01°16' E 103°56'0 0.0
2014-Nov-20 22:31N 01°16' E 103°56'0 0.0
2014-Nov-20 21:13N 01°16' E 103°56'0 0.0
2014-Nov-20 20:25N 01°16' E 103°56'0 0.0
2014-Nov-20 19:07N 01°16' E 103°56'0 0.0
2014-Nov-20 18:25N 01°16' E 103°56'0 0.0
2014-Nov-20 17:31N 01°16' E 103°56'0 0.1
2014-Nov-20 16:19N 01°16' E 103°56'0 0.0
2014-Nov-20 14:04N 01°16' E 103°56'0 0.0
2014-Nov-20 13:25N 01°16' E 103°56'0 0.1
2014-Nov-20 09:13N 01°16' E 103°56'0 0.1
2014-Nov-20 08:19N 01°16' E 103°56'0 0.1
2014-Nov-20 07:33N 01°16' E 103°56'2 1.7
2014-Nov-20 06:33N 01°16' E 103°57'7 7.4
2014-Nov-20 05:33N 01°16' E 104°05'9 8.4
2014-Nov-20 04:27N 01°17' E 104°14'  
2014-Nov-17 14:11S 04°24' E 114°10'812.4
2014-Nov-17 13:34S 04°18' E 114°15'1212.4
2014-Nov-17 12:34S 04°06' E 114°20'1312.4
2014-Nov-17 11:30S 03°54' E 114°24'9 9.2
2014-Nov-17 10:33S 03°46' E 114°26'3 3.0
2014-Nov-17 09:33S 03°43' E 114°26'0 0.0
2014-Nov-17 08:33S 03°43' E 114°26'0 0.1
2014-Nov-17 07:33S 03°43' E 114°26'0 0.1
2014-Nov-17 06:33S 03°43' E 114°26'0 0.0
2014-Nov-17 05:33S 03°43' E 114°26'0 0.1
2014-Nov-17 04:33S 03°43' E 114°26'0 0.1
2014-Nov-17 03:33S 03°43' E 114°25'0 0.0
2014-Nov-17 02:33S 03°43' E 114°25'0 0.1
2014-Nov-17 01:33S 03°43' E 114°26'0 0.0
2014-Nov-17 00:33S 03°43' E 114°26'0 0.0
2014-Nov-16 23:33S 03°43' E 114°26'0 0.0
2014-Nov-16 22:30S 03°43' E 114°26'0 0.0
2014-Nov-16 21:33S 03°43' E 114°26'0 0.0
2014-Nov-16 20:33S 03°43' E 114°26'0 0.1
2014-Nov-16 19:33S 03°43' E 114°26'0 0.2
2014-Nov-16 18:33S 03°42' E 114°25'0 0.1
2014-Nov-16 17:33S 03°42' E 114°25'0 0.0
2014-Nov-16 16:33S 03°42' E 114°25'0 0.0
2014-Nov-16 15:30S 03°42' E 114°25'0 0.1
2014-Nov-16 14:33S 03°42' E 114°26'0 0.0
2014-Nov-16 13:33S 03°42' E 114°26'0 0.0
2014-Nov-16 12:33S 03°42' E 114°26'0 0.1
2014-Nov-16 11:30S 03°42' E 114°26'0 0.0
2014-Nov-16 10:33S 03°42' E 114°26'0 0.1
2014-Nov-16 06:33S 03°43' E 114°26'0 0.1
2014-Nov-16 05:33S 03°43' E 114°26'0 0.1
2014-Nov-16 04:33S 03°42' E 114°25'0 0.1
2014-Nov-16 03:33S 03°42' E 114°25'0 0.1
2014-Nov-16 02:27S 03°43' E 114°25'0 0.1
2014-Nov-16 01:33S 03°43' E 114°26'0 0.1
2014-Nov-16 00:33S 03°43' E 114°25'0 0.1
2014-Nov-15 23:33S 03°43' E 114°26'0 0.1
2014-Nov-15 22:33S 03°43' E 114°26'0 0.0
2014-Nov-15 21:33S 03°43' E 114°26'0 0.1
2014-Nov-15 20:33S 03°43' E 114°26'0 0.0
2014-Nov-15 19:33S 03°43' E 114°26'0 0.0
2014-Nov-15 18:33S 03°43' E 114°26'0 0.1
2014-Nov-15 17:33S 03°42' E 114°26'0 0.1
2014-Nov-15 16:33S 03°42' E 114°26'0 0.1
2014-Nov-15 15:30S 03°42' E 114°26'0 0.1
2014-Nov-15 14:33S 03°42' E 114°26'0 0.0
2014-Nov-15 13:30S 03°42' E 114°26'0 0.0
2014-Nov-15 12:33S 03°42' E 114°26'0 0.0
2014-Nov-15 11:33S 03°42' E 114°26'0 0.1
2014-Nov-15 10:33S 03°42' E 114°26'0 0.2
2014-Nov-15 09:33S 03°42' E 114°26'0 0.1
2014-Nov-15 08:33S 03°43' E 114°26'0 0.1
2014-Nov-15 07:33S 03°43' E 114°26'0 0.0
2014-Nov-15 06:33S 03°43' E 114°26'0 0.1
2014-Nov-15 05:33S 03°43' E 114°26'0 0.0
2014-Nov-15 04:33S 03°43' E 114°26'0 0.0
2014-Nov-15 03:33S 03°43' E 114°26'0 0.0
2014-Nov-15 02:33S 03°43' E 114°26'0 0.1
2014-Nov-15 01:33S 03°43' E 114°25'0 0.1
2014-Nov-15 00:33S 03°43' E 114°26'0 0.0
2014-Nov-14 23:33S 03°43' E 114°26'0 0.0
2014-Nov-14 22:33S 03°43' E 114°26'0 0.1
2014-Nov-14 21:33S 03°43' E 114°26'0 0.1
2014-Nov-14 20:33S 03°43' E 114°26'0 0.0
2014-Nov-14 19:33S 03°43' E 114°26'0 0.1
2014-Nov-14 18:33S 03°43' E 114°26'0 0.1
2014-Nov-14 17:33S 03°43' E 114°25'0 0.2
2014-Nov-14 16:33S 03°42' E 114°25'0 0.0
2014-Nov-14 15:33S 03°42' E 114°25'0 0.1
2014-Nov-14 14:33S 03°42' E 114°25'0 0.0
2014-Nov-14 12:33S 03°42' E 114°26'0 0.1
2014-Nov-14 11:33S 03°42' E 114°25'0 0.0
2014-Nov-14 10:33S 03°42' E 114°25'0 0.2
2014-Nov-14 09:30S 03°42' E 114°25'0 0.1
2014-Nov-14 08:33S 03°43' E 114°25'0 0.1
2014-Nov-14 07:30S 03°43' E 114°26'0 0.1
2014-Nov-14 06:33S 03°43' E 114°26'0 0.0
2014-Nov-14 05:33S 03°43' E 114°26'0 0.1
2014-Nov-14 04:33S 03°43' E 114°26'0 0.1
2014-Nov-14 03:33S 03°43' E 114°25'0 0.0
2014-Nov-14 02:24S 03°42' E 114°25'0 0.0
2014-Nov-14 01:33S 03°43' E 114°25'0 0.0
2014-Nov-14 00:30S 03°43' E 114°25'0 0.1
2014-Nov-13 23:33S 03°43' E 114°26'0 0.1
2014-Nov-13 22:30S 03°43' E 114°26'0 0.0
2014-Nov-13 21:33S 03°43' E 114°26'0 0.0
2014-Nov-13 20:33S 03°43' E 114°26'0 0.0
2014-Nov-13 19:33S 03°43' E 114°26'0 0.1
2014-Nov-13 18:33S 03°43' E 114°26'0 0.1
2014-Nov-13 17:30S 03°42' E 114°25'0 0.2
2014-Nov-13 16:33S 03°42' E 114°25'0 0.0
2014-Nov-13 15:30S 03°42' E 114°25'0 0.0
2014-Nov-13 14:33S 03°42' E 114°25'0 0.0
2014-Nov-13 13:33S 03°42' E 114°25'0 0.1
2014-Nov-13 12:33S 03°42' E 114°26'0 0.0
2014-Nov-13 11:33S 03°42' E 114°26'0 0.0
2014-Nov-13 10:30S 03°42' E 114°26'0 0.0
2014-Nov-13 09:33S 03°42' E 114°26'0 0.1
2014-Nov-13 08:33S 03°42' E 114°26'0 0.2
2014-Nov-13 07:30S 03°42' E 114°26'0 0.2
2014-Nov-13 06:33S 03°42' E 114°26'0 0.1
2014-Nov-13 05:33S 03°42' E 114°25'0 0.0
2014-Nov-13 04:33S 03°43' E 114°25'0 0.1
2014-Nov-13 03:33S 03°42' E 114°25'0 0.0
2014-Nov-13 02:33S 03°42' E 114°25'0 0.0
2014-Nov-13 01:33S 03°42' E 114°25'0 0.0
2014-Nov-13 00:30S 03°42' E 114°25'0 0.0
2014-Nov-12 23:33S 03°42' E 114°25'0 0.0
2014-Nov-12 22:33S 03°42' E 114°25'0 0.0
2014-Nov-12 21:33S 03°42' E 114°25'0 0.0
2014-Nov-12 20:33S 03°42' E 114°25'0 0.0
2014-Nov-12 19:33S 03°42' E 114°25'0 0.0
2014-Nov-12 18:33S 03°42' E 114°25'0 0.0
2014-Nov-12 17:33S 03°42' E 114°25'0 0.0
2014-Nov-12 16:33S 03°42' E 114°25'0 0.1
2014-Nov-12 15:33S 03°42' E 114°25'0 0.0
2014-Nov-12 14:33S 03°42' E 114°25'0 0.1
2014-Nov-12 13:33S 03°42' E 114°26'0 0.0
2014-Nov-12 12:33S 03°42' E 114°26'0 0.0
2014-Nov-12 11:33S 03°42' E 114°26'0 0.0
2014-Nov-12 10:33S 03°42' E 114°26'0 0.1
2014-Nov-12 09:33S 03°42' E 114°26'0 0.0
2014-Nov-12 08:33S 03°42' E 114°26'0 0.1
2014-Nov-12 07:27S 03°42' E 114°26'0 0.2
2014-Nov-12 06:33S 03°43' E 114°26'0 0.1
2014-Nov-12 05:33S 03°43' E 114°26'0 0.0
2014-Nov-12 04:33S 03°43' E 114°26'0 0.0
2014-Nov-12 03:33S 03°43' E 114°26'0 0.1
2014-Nov-12 02:33S 03°43' E 114°26'0 0.1
2014-Nov-12 01:33S 03°43' E 114°25'0 0.0
2014-Nov-12 00:33S 03°43' E 114°25'0 0.1
2014-Nov-11 23:33S 03°43' E 114°25'0 0.0
2014-Nov-11 22:33S 03°43' E 114°25'0 0.1
2014-Nov-11 21:33S 03°43' E 114°26'0 0.1
2014-Nov-11 20:33S 03°43' E 114°25'0 0.1
2014-Nov-11 19:33S 03°42' E 114°25'0 0.0
2014-Nov-11 18:33S 03°42' E 114°25'0 0.1
2014-Nov-11 17:33S 03°42' E 114°25'0 0.1
2014-Nov-11 16:33S 03°42' E 114°26'0 0.1
2014-Nov-11 15:33S 03°42' E 114°25'0 0.1
2014-Nov-11 14:33S 03°42' E 114°26'0 0.0
2014-Nov-11 13:33S 03°42' E 114°26'0 0.0
2014-Nov-11 12:33S 03°42' E 114°26'0 0.0
2014-Nov-11 11:33S 03°42' E 114°26'0 0.1
2014-Nov-11 10:33S 03°42' E 114°26'0 0.0
2014-Nov-11 09:33S 03°42' E 114°26'0 0.0
2014-Nov-11 08:33S 03°42' E 114°26'  

Dump ship's entire track history